createdAt,value
2019-03-22T00:00:46.558Z,25.50
2019-03-22T00:03:20.574Z,25.60
2019-03-22T00:05:54.656Z,25.60
2019-03-22T00:08:29.603Z,25.60
2019-03-22T00:11:03.289Z,25.70
2019-03-22T00:13:37.036Z,25.70
2019-03-22T00:16:11.128Z,25.70
2019-03-22T00:18:45.213Z,25.80
2019-03-22T00:21:18.838Z,25.80
2019-03-22T00:23:52.473Z,25.90
2019-03-22T00:26:44.262Z,25.90
2019-03-22T00:29:18.451Z,25.90
2019-03-22T00:31:52.193Z,26.00
2019-03-22T00:34:25.863Z,26.00
2019-03-22T00:36:59.732Z,26.00
2019-03-22T00:39:33.666Z,26.10
2019-03-22T00:42:06.980Z,26.10
2019-03-22T00:44:40.669Z,26.20
2019-03-22T00:47:15.134Z,26.30
2019-03-22T00:49:49.671Z,26.30
2019-03-22T00:52:24.022Z,26.40
2019-03-22T00:54:57.810Z,26.50
2019-03-22T00:57:31.914Z,26.50
2019-03-22T01:00:07.522Z,26.60
2019-03-22T01:02:40.975Z,26.60
2019-03-22T01:05:15.890Z,26.60
2019-03-22T01:07:49.557Z,26.70
2019-03-22T01:10:23.368Z,26.70
2019-03-22T01:12:56.738Z,26.70
2019-03-22T01:15:33.739Z,26.80
2019-03-22T01:18:07.047Z,26.90
2019-03-22T01:20:40.758Z,27.00
2019-03-22T01:23:14.480Z,27.10
2019-03-22T01:25:48.744Z,27.10
2019-03-22T01:28:22.499Z,27.30
2019-03-22T01:30:56.719Z,27.30
2019-03-22T01:33:30.371Z,27.30
2019-03-22T01:36:04.106Z,27.40
2019-03-22T01:38:37.939Z,27.40
2019-03-22T01:41:11.550Z,27.50
2019-03-22T01:43:45.646Z,27.50
2019-03-22T01:46:19.865Z,27.60
2019-03-22T01:48:53.774Z,27.70
2019-03-22T01:51:27.744Z,27.80
2019-03-22T01:54:03.134Z,27.90
2019-03-22T01:56:37.244Z,27.90
2019-03-22T01:59:10.724Z,28.00
2019-03-22T02:01:44.420Z,28.20
2019-03-22T02:04:17.844Z,28.30
2019-03-22T02:06:51.732Z,28.40
2019-03-22T02:09:26.229Z,28.60
2019-03-22T02:12:00.166Z,28.80
2019-03-22T02:14:33.698Z,28.90
2019-03-22T02:17:07.805Z,28.90
2019-03-22T02:19:41.510Z,29.00
2019-03-22T02:22:15.120Z,28.90
2019-03-22T02:24:48.738Z,29.00
2019-03-22T02:27:30.730Z,28.90
2019-03-22T02:30:07.732Z,28.90
2019-03-22T02:32:42.836Z,29.00
2019-03-22T02:35:28.426Z,29.00
2019-03-22T02:37:53.024Z,28.90
2019-03-22T02:40:26.786Z,28.80
2019-03-22T02:43:00.880Z,28.90
2019-03-22T02:45:34.561Z,28.90
2019-03-22T02:48:08.549Z,28.90
2019-03-22T02:50:41.843Z,28.80
2019-03-22T02:53:15.821Z,28.70
2019-03-22T02:55:49.801Z,28.80
2019-03-22T02:58:23.724Z,28.80
2019-03-22T03:01:00.434Z,28.80
2019-03-22T03:03:34.245Z,28.70
2019-03-22T03:06:12.606Z,28.70
2019-03-22T03:08:46.248Z,28.60
2019-03-22T03:11:22.148Z,28.70
2019-03-22T03:13:56.077Z,28.60
2019-03-22T03:16:30.063Z,28.50
2019-03-22T03:19:03.823Z,28.60
2019-03-22T03:21:42.087Z,28.60
2019-03-22T03:24:15.788Z,28.70
2019-03-22T03:26:49.471Z,28.90
2019-03-22T03:29:25.360Z,29.10
2019-03-22T03:32:02.235Z,29.30
2019-03-22T03:34:36.572Z,29.40
2019-03-22T03:37:15.205Z,29.60
2019-03-22T03:39:50.463Z,29.80
2019-03-22T03:42:24.284Z,29.90
2019-03-22T03:44:58.810Z,30.20
2019-03-22T03:47:33.063Z,30.50
2019-03-22T03:50:08.018Z,30.70
2019-03-22T03:52:41.737Z,30.90
2019-03-22T03:55:15.027Z,31.00
2019-03-22T03:57:49.076Z,31.10
2019-03-22T04:00:22.632Z,31.20
2019-03-22T04:02:56.602Z,31.20
2019-03-22T04:05:30.512Z,31.30
2019-03-22T04:08:06.807Z,31.40
2019-03-22T04:10:46.439Z,31.50
2019-03-22T04:13:24.889Z,31.50
2019-03-22T04:15:58.272Z,31.60
2019-03-22T04:18:33.864Z,31.70
2019-03-22T04:21:07.269Z,31.50
2019-03-22T04:23:41.188Z,31.50
2019-03-22T04:26:14.703Z,31.60
2019-03-22T04:28:48.572Z,31.70
2019-03-22T04:31:21.861Z,31.90
2019-03-22T04:33:57.469Z,32.00
2019-03-22T04:36:30.818Z,32.00
2019-03-22T04:39:06.650Z,32.10
2019-03-22T04:41:40.708Z,32.00
2019-03-22T04:44:14.363Z,32.10
2019-03-22T04:46:48.500Z,32.10
2019-03-22T04:49:23.199Z,32.10
2019-03-22T04:51:58.361Z,32.00
2019-03-22T04:54:33.369Z,32.10
2019-03-22T04:57:09.449Z,32.20
2019-03-22T04:59:45.692Z,32.30
2019-03-22T05:02:22.419Z,32.30
2019-03-22T05:04:55.908Z,32.30
2019-03-22T05:07:32.944Z,32.30
2019-03-22T05:10:11.606Z,32.50
2019-03-22T05:12:50.802Z,32.60
2019-03-22T05:15:26.124Z,32.60
2019-03-22T05:18:00.142Z,32.40
2019-03-22T05:20:37.079Z,32.60
2019-03-22T05:23:10.991Z,32.50
2019-03-22T05:25:45.670Z,32.60
2019-03-22T05:28:19.330Z,32.80
2019-03-22T05:31:01.555Z,33.20
2019-03-22T05:33:35.308Z,33.60
2019-03-22T05:36:13.311Z,33.60
2019-03-22T05:38:47.670Z,33.50
2019-03-22T05:41:22.509Z,33.20
2019-03-22T05:43:56.462Z,33.10
2019-03-22T05:46:31.423Z,33.50
2019-03-22T05:49:06.443Z,34.00
2019-03-22T05:51:40.651Z,34.40
2019-03-22T05:54:15.242Z,34.50
2019-03-22T05:56:49.594Z,34.40
2019-03-22T05:59:22.857Z,34.20
2019-03-22T06:01:57.488Z,34.00
2019-03-22T06:04:31.140Z,34.00
2019-03-22T06:07:09.893Z,34.30
2019-03-22T06:09:43.513Z,34.80
2019-03-22T06:12:18.360Z,35.20
2019-03-22T06:14:51.735Z,35.40
2019-03-22T06:17:26.909Z,35.60
2019-03-22T06:20:00.780Z,36.00
2019-03-22T06:22:35.055Z,36.30
2019-03-22T06:25:08.868Z,36.50
2019-03-22T06:27:43.061Z,36.70
2019-03-22T06:30:16.703Z,37.00
2019-03-22T06:32:50.737Z,37.20
2019-03-22T06:35:31.131Z,37.30
2019-03-22T06:38:06.115Z,37.50
2019-03-22T06:40:39.634Z,36.90
2019-03-22T06:43:14.266Z,36.60
2019-03-22T06:45:47.730Z,36.70
2019-03-22T06:48:21.672Z,36.80
2019-03-22T06:50:55.863Z,36.80
2019-03-22T06:53:29.830Z,36.70
2019-03-22T06:56:03.450Z,37.00
2019-03-22T06:58:37.181Z,37.40
2019-03-22T07:01:11.016Z,37.80
2019-03-22T07:03:44.680Z,37.60
2019-03-22T07:06:18.311Z,37.00
2019-03-22T07:08:51.991Z,36.60
2019-03-22T07:11:25.387Z,36.90
2019-03-22T07:13:59.201Z,37.30
2019-03-22T07:16:33.038Z,37.50
2019-03-22T07:19:09.811Z,37.80
2019-03-22T07:21:43.870Z,38.30
2019-03-22T07:24:17.514Z,38.50
2019-03-22T07:26:50.917Z,38.80
2019-03-22T07:29:25.117Z,39.00
2019-03-22T07:31:58.678Z,39.10
2019-03-22T07:34:33.604Z,38.70
2019-03-22T07:37:07.317Z,38.90
2019-03-22T07:39:41.267Z,38.90
2019-03-22T07:42:17.489Z,39.00
2019-03-22T07:44:50.068Z,39.10
2019-03-22T07:47:23.552Z,39.40
2019-03-22T07:49:57.616Z,39.50
2019-03-22T07:52:31.142Z,39.20
2019-03-22T07:55:05.123Z,38.70
2019-03-22T07:57:38.995Z,38.90
2019-03-22T08:00:13.947Z,38.90
2019-03-22T08:02:47.159Z,38.50
2019-03-22T08:05:20.848Z,38.50
2019-03-22T08:07:56.110Z,38.10
2019-03-22T08:10:32.823Z,37.40
2019-03-22T08:13:06.262Z,37.20
2019-03-22T08:15:41.777Z,37.10
2019-03-22T08:18:15.548Z,37.30
2019-03-22T08:20:49.844Z,36.30
2019-03-22T08:23:26.557Z,36.30
2019-03-22T08:26:03.622Z,35.90
2019-03-22T08:28:37.632Z,35.70
2019-03-22T08:31:11.895Z,35.30
2019-03-22T08:33:45.900Z,35.00
2019-03-22T08:36:19.726Z,34.70
2019-03-22T08:38:53.229Z,34.40
2019-03-22T08:41:26.965Z,34.40
2019-03-22T08:44:02.722Z,34.20
2019-03-22T08:46:35.600Z,33.90
2019-03-22T08:49:09.700Z,33.70
2019-03-22T08:51:43.719Z,33.50
2019-03-22T08:54:17.583Z,33.30
2019-03-22T08:56:51.251Z,33.10
2019-03-22T08:59:25.049Z,33.00
2019-03-22T09:01:58.753Z,32.90
2019-03-22T09:04:32.132Z,32.70
2019-03-22T09:07:05.648Z,32.50
2019-03-22T09:09:41.718Z,32.40
2019-03-22T09:12:14.975Z,32.20
2019-03-22T09:14:48.358Z,32.30
2019-03-22T09:17:22.369Z,32.00
2019-03-22T09:19:56.387Z,31.90
2019-03-22T09:22:30.741Z,31.90
2019-03-22T09:25:05.729Z,31.90
2019-03-22T09:27:40.345Z,31.80
2019-03-22T09:30:15.973Z,31.60
2019-03-22T09:32:49.930Z,31.60
2019-03-22T09:35:23.876Z,31.50
2019-03-22T09:37:57.895Z,31.40
2019-03-22T09:40:31.847Z,31.30
2019-03-22T09:43:05.777Z,31.10
2019-03-22T09:45:39.394Z,31.10
2019-03-22T09:48:13.071Z,31.00
2019-03-22T09:50:46.486Z,30.90
2019-03-22T09:53:20.174Z,30.80
2019-03-22T09:55:54.636Z,30.70
2019-03-22T09:58:28.515Z,30.60
2019-03-22T10:01:02.661Z,30.50
2019-03-22T10:03:36.323Z,30.50
2019-03-22T10:06:10.527Z,30.40
2019-03-22T10:08:44.588Z,30.40
2019-03-22T10:11:17.943Z,30.30
2019-03-22T10:13:52.882Z,30.20
2019-03-22T10:16:26.719Z,30.10
2019-03-22T10:19:00.650Z,29.90
2019-03-22T10:21:34.494Z,29.90
2019-03-22T10:24:08.350Z,29.90
2019-03-22T10:26:41.579Z,29.80
2019-03-22T10:29:15.590Z,29.70
2019-03-22T10:31:49.048Z,29.70
2019-03-22T10:34:22.789Z,29.60
2019-03-22T10:36:57.079Z,29.60
2019-03-22T10:39:32.178Z,29.50
2019-03-22T10:42:06.311Z,29.50
2019-03-22T10:44:40.165Z,29.50
2019-03-22T10:47:14.038Z,29.40
2019-03-22T10:49:48.242Z,29.30
2019-03-22T10:52:24.189Z,29.20
2019-03-22T10:54:57.833Z,29.10
2019-03-22T10:57:31.800Z,29.00
2019-03-22T11:00:07.254Z,29.00
2019-03-22T11:02:41.169Z,28.90
2019-03-22T11:05:15.300Z,28.90
2019-03-22T11:07:49.158Z,28.80
2019-03-22T11:10:23.097Z,28.80
2019-03-22T11:12:57.328Z,28.70
2019-03-22T11:15:33.387Z,28.70
2019-03-22T11:18:07.235Z,28.70
2019-03-22T11:20:42.641Z,28.60
2019-03-22T11:23:16.645Z,28.60
2019-03-22T11:26:00.293Z,28.60
2019-03-22T11:28:31.396Z,28.50
2019-03-22T11:31:06.039Z,28.50
2019-03-22T11:33:46.078Z,28.50
2019-03-22T11:36:20.373Z,28.40
2019-03-22T11:38:55.402Z,28.40
2019-03-22T11:41:29.933Z,28.40
2019-03-22T11:44:03.858Z,28.30
2019-03-22T11:46:41.767Z,28.30
2019-03-22T11:49:15.131Z,28.30
2019-03-22T11:51:49.244Z,28.30
2019-03-22T11:54:37.627Z,28.20
2019-03-22T11:57:13.948Z,28.20
2019-03-22T11:59:48.019Z,28.20
2019-03-22T12:02:22.613Z,28.20
2019-03-22T12:04:57.698Z,28.20
2019-03-22T12:07:32.017Z,28.10
2019-03-22T12:10:08.872Z,28.10
2019-03-22T12:12:43.097Z,28.10
2019-03-22T12:15:25.405Z,28.10
2019-03-22T12:17:59.966Z,28.00
2019-03-22T12:20:33.945Z,28.00
2019-03-22T12:23:08.328Z,28.00
2019-03-22T12:25:42.195Z,28.00
2019-03-22T12:28:23.669Z,28.00
2019-03-22T12:30:57.527Z,28.00
2019-03-22T12:33:31.219Z,28.00
2019-03-22T12:36:05.129Z,28.00
2019-03-22T12:38:38.535Z,28.00
2019-03-22T12:41:12.604Z,27.90
2019-03-22T12:43:46.928Z,27.90
2019-03-22T12:46:20.640Z,27.90
2019-03-22T12:48:54.580Z,27.90
2019-03-22T12:51:28.381Z,27.90
2019-03-22T12:54:02.531Z,27.80
2019-03-22T12:56:36.878Z,27.80
2019-03-22T12:59:10.696Z,27.80
2019-03-22T13:01:44.780Z,27.80
2019-03-22T13:04:22.467Z,27.70
2019-03-22T13:06:56.439Z,27.80
2019-03-22T13:09:30.478Z,27.70
2019-03-22T13:12:06.382Z,27.70
2019-03-22T13:14:40.522Z,27.70
2019-03-22T13:17:14.050Z,27.70
2019-03-22T13:19:47.976Z,27.70
2019-03-22T13:22:21.842Z,27.70
2019-03-22T13:24:55.809Z,27.60
2019-03-22T13:27:31.663Z,27.60
2019-03-22T13:30:07.800Z,27.60
2019-03-22T13:32:41.651Z,27.60
2019-03-22T13:35:15.973Z,27.60
2019-03-22T13:37:50.696Z,27.60
2019-03-22T13:40:24.412Z,27.60
2019-03-22T13:42:58.286Z,27.50
2019-03-22T13:45:32.239Z,27.50
2019-03-22T13:48:05.828Z,27.50
2019-03-22T13:50:41.991Z,27.40
2019-03-22T13:53:15.978Z,27.50
2019-03-22T13:55:50.534Z,27.50
2019-03-22T13:58:24.437Z,27.40
2019-03-22T14:00:58.655Z,27.40
2019-03-22T14:03:33.174Z,27.40
2019-03-22T14:06:07.603Z,27.40
2019-03-22T14:08:41.844Z,27.40
2019-03-22T14:11:16.048Z,27.30
2019-03-22T14:13:49.696Z,27.30
2019-03-22T14:16:23.597Z,27.30
2019-03-22T14:19:00.067Z,27.30
2019-03-22T14:21:34.009Z,27.30
2019-03-22T14:24:07.633Z,27.30
2019-03-22T14:26:41.670Z,27.30
2019-03-22T14:29:16.157Z,27.30
2019-03-22T14:31:50.016Z,27.30
2019-03-22T14:34:23.650Z,27.20
2019-03-22T14:36:59.043Z,27.20
2019-03-22T14:39:32.968Z,27.20
2019-03-22T14:42:06.935Z,27.10
2019-03-22T14:44:41.051Z,27.10
2019-03-22T14:47:14.590Z,27.20
2019-03-22T14:49:48.630Z,27.20
2019-03-22T14:52:22.388Z,27.20
2019-03-22T14:54:56.691Z,27.10
2019-03-22T14:57:30.910Z,27.10
2019-03-22T15:00:04.633Z,27.10
2019-03-22T15:02:40.471Z,27.10
2019-03-22T15:05:14.133Z,27.10
2019-03-22T15:07:51.223Z,27.00
2019-03-22T15:10:25.108Z,27.10
2019-03-22T15:12:58.935Z,27.00
2019-03-22T15:15:43.443Z,27.00
2019-03-22T15:18:28.631Z,27.00
2019-03-22T15:21:22.518Z,27.00
2019-03-22T15:24:03.403Z,27.00
2019-03-22T15:26:45.266Z,27.00
2019-03-22T15:29:26.640Z,27.00
2019-03-22T15:32:23.613Z,27.00
2019-03-22T15:35:15.393Z,26.90
2019-03-22T15:37:59.889Z,26.90
2019-03-22T15:40:38.536Z,26.90
2019-03-22T15:43:18.278Z,27.00
2019-03-22T15:45:53.739Z,27.00
2019-03-22T15:48:39.585Z,26.90
2019-03-22T15:51:27.022Z,26.90
2019-03-22T15:54:01.068Z,26.90
2019-03-22T15:56:36.729Z,26.90
2019-03-22T15:59:10.405Z,26.80
2019-03-22T16:01:45.535Z,26.90
2019-03-22T16:04:18.885Z,26.80
2019-03-22T16:06:53.955Z,26.80
2019-03-22T16:09:27.768Z,26.80
2019-03-22T16:12:02.375Z,26.80
2019-03-22T16:14:35.680Z,26.80
2019-03-22T16:17:13.491Z,26.80
2019-03-22T16:19:47.265Z,26.80
2019-03-22T16:22:21.909Z,26.90
2019-03-22T16:25:07.889Z,26.80
2019-03-22T16:27:41.655Z,26.80
2019-03-22T16:30:16.848Z,26.70
2019-03-22T16:32:50.955Z,26.70
2019-03-22T16:35:24.944Z,26.70
2019-03-22T16:37:59.618Z,26.70
2019-03-22T16:40:33.257Z,26.70
2019-03-22T16:43:43.212Z,26.70
2019-03-22T16:46:23.360Z,26.70
2019-03-22T16:48:57.529Z,26.80
2019-03-22T16:51:32.348Z,26.80
2019-03-22T16:54:07.604Z,26.70
2019-03-22T16:56:53.310Z,26.70
2019-03-22T16:59:28.733Z,26.70
2019-03-22T17:02:10.274Z,26.70
2019-03-22T17:04:50.397Z,26.70
2019-03-22T17:14:15.998Z,26.70
2019-03-22T17:17:04.205Z,26.70
2019-03-22T17:19:37.619Z,26.70
2019-03-22T17:22:11.462Z,26.70
2019-03-22T17:24:50.305Z,26.60
2019-03-22T17:27:27.810Z,26.60
2019-03-22T17:30:28.066Z,26.70
2019-03-22T17:33:08.303Z,26.60
2019-03-22T17:35:42.543Z,26.60
2019-03-22T17:38:20.250Z,26.70
2019-03-22T17:40:54.294Z,26.60
2019-03-22T17:43:28.412Z,26.60
2019-03-22T17:46:02.660Z,26.60
2019-03-22T17:48:43.152Z,26.60
2019-03-22T17:51:18.492Z,26.60
2019-03-22T17:53:55.396Z,26.60
2019-03-22T17:56:37.265Z,26.60
2019-03-22T17:59:10.064Z,26.60
2019-03-22T18:01:44.095Z,26.60
2019-03-22T18:04:24.349Z,26.60
2019-03-22T18:06:58.960Z,26.60
2019-03-22T18:09:34.370Z,26.60
2019-03-22T18:12:11.860Z,26.60
2019-03-22T18:14:49.035Z,26.50
2019-03-22T18:17:23.396Z,26.50
2019-03-22T18:19:58.276Z,26.50
2019-03-22T18:22:32.318Z,26.50
2019-03-22T18:25:07.675Z,26.60
2019-03-22T18:27:41.888Z,26.50
2019-03-22T18:30:16.268Z,26.50
2019-03-22T18:32:50.831Z,26.50
2019-03-22T18:35:27.407Z,26.50
2019-03-22T18:38:02.431Z,26.40
2019-03-22T18:40:36.312Z,26.50
2019-03-22T18:43:14.472Z,26.50
2019-03-22T18:45:48.433Z,26.40
2019-03-22T18:48:23.300Z,26.40
2019-03-22T18:50:58.043Z,26.40
2019-03-22T18:53:33.237Z,26.40
2019-03-22T18:56:07.309Z,26.40
2019-03-22T18:58:47.257Z,26.50
2019-03-22T19:01:21.128Z,26.40
2019-03-22T19:03:58.962Z,26.40
2019-03-22T19:06:34.025Z,26.40
2019-03-22T19:09:11.578Z,26.40
2019-03-22T19:11:46.441Z,26.40
2019-03-22T19:14:20.129Z,26.30
2019-03-22T19:16:54.164Z,26.40
2019-03-22T19:19:29.340Z,26.30
2019-03-22T19:22:03.629Z,26.30
2019-03-22T19:24:37.418Z,26.30
2019-03-22T19:27:12.231Z,26.30
2019-03-22T19:29:46.911Z,26.30
2019-03-22T19:32:21.319Z,26.30
2019-03-22T19:34:55.345Z,26.30
2019-03-22T19:37:29.429Z,26.30
2019-03-22T19:40:03.771Z,26.30
2019-03-22T19:42:37.476Z,26.20
2019-03-22T19:45:12.833Z,26.20
2019-03-22T19:47:50.266Z,26.20
2019-03-22T19:50:24.329Z,26.20
2019-03-22T19:52:58.012Z,26.30
2019-03-22T19:55:32.313Z,26.30
2019-03-22T19:58:07.455Z,26.20
2019-03-22T20:00:41.766Z,26.20
2019-03-22T20:03:15.893Z,26.20
2019-03-22T20:05:49.869Z,26.20
2019-03-22T20:08:26.815Z,26.20
2019-03-22T20:11:03.020Z,26.20
2019-03-22T20:13:36.823Z,26.20
2019-03-22T20:16:11.881Z,26.20
2019-03-22T20:18:46.501Z,26.20
2019-03-22T20:21:20.331Z,26.20
2019-03-22T20:23:54.088Z,26.20
2019-03-22T20:26:27.967Z,26.00
2019-03-22T20:29:02.024Z,26.00
2019-03-22T20:31:35.658Z,26.00
2019-03-22T20:34:10.332Z,26.00
2019-03-22T20:36:46.029Z,26.00
2019-03-22T20:39:21.031Z,26.10
2019-03-22T20:41:56.809Z,26.00
2019-03-22T20:44:34.192Z,26.00
2019-03-22T20:47:06.298Z,26.00
2019-03-22T20:49:40.595Z,26.00
2019-03-22T20:52:16.001Z,26.00
2019-03-22T20:54:50.508Z,26.00
2019-03-22T20:57:25.564Z,26.00
2019-03-22T20:59:59.253Z,26.00
2019-03-22T21:02:32.799Z,26.00
2019-03-22T21:05:08.069Z,26.00
2019-03-22T21:07:41.694Z,26.00
2019-03-22T21:10:15.721Z,26.00
2019-03-22T21:12:49.518Z,26.00
2019-03-22T21:15:24.600Z,26.00
2019-03-22T21:17:58.717Z,26.00
2019-03-22T21:20:32.705Z,26.00
2019-03-22T21:23:06.165Z,26.00
2019-03-22T21:25:41.162Z,25.90
2019-03-22T21:28:16.567Z,25.90
2019-03-22T21:30:50.436Z,25.90
2019-03-22T21:33:24.105Z,25.90
2019-03-22T21:35:58.131Z,25.90
2019-03-22T21:38:32.129Z,25.90
2019-03-22T21:41:06.176Z,25.90
2019-03-22T21:43:39.791Z,25.90
2019-03-22T21:46:13.606Z,25.90
2019-03-22T21:48:47.722Z,25.90
2019-03-22T21:51:21.433Z,25.90
2019-03-22T21:53:55.364Z,25.90
2019-03-22T21:56:29.957Z,25.90
2019-03-22T21:59:08.014Z,25.90
2019-03-22T22:01:41.727Z,25.90
2019-03-22T22:04:15.587Z,25.90
2019-03-22T22:06:49.640Z,25.90
2019-03-22T22:09:28.194Z,25.90
2019-03-22T22:12:02.310Z,25.90
2019-03-22T22:14:41.010Z,25.90
2019-03-22T22:17:13.398Z,26.00
2019-03-22T22:19:48.449Z,26.00
2019-03-22T22:22:23.772Z,26.00
2019-03-22T22:24:58.828Z,26.00
2019-03-22T22:27:32.935Z,26.00
2019-03-22T22:30:11.002Z,26.00
2019-03-22T22:32:45.234Z,26.00
2019-03-22T22:35:19.457Z,26.00
2019-03-22T22:37:53.188Z,26.00
2019-03-22T22:40:27.065Z,26.00
2019-03-22T22:43:01.136Z,26.00
2019-03-22T22:45:38.572Z,26.00
2019-03-22T22:48:13.608Z,25.90
2019-03-22T22:50:51.101Z,26.00
2019-03-22T22:53:25.856Z,25.90
2019-03-22T22:56:00.266Z,25.90
2019-03-22T22:58:35.262Z,25.90
2019-03-22T23:01:09.305Z,25.90
2019-03-22T23:03:43.832Z,25.90
2019-03-22T23:06:23.075Z,25.90
2019-03-22T23:08:56.956Z,25.90
2019-03-22T23:11:34.852Z,26.00
2019-03-22T23:14:09.210Z,25.90
2019-03-22T23:16:44.919Z,25.90
2019-03-22T23:19:19.567Z,25.90
2019-03-22T23:21:55.024Z,25.90
2019-03-22T23:24:29.652Z,25.90
2019-03-22T23:27:04.451Z,26.00
2019-03-22T23:29:42.070Z,26.00
2019-03-22T23:32:17.317Z,26.00
2019-03-22T23:34:58.940Z,26.00
2019-03-22T23:37:28.303Z,26.00
2019-03-22T23:40:02.072Z,26.00
2019-03-22T23:42:36.491Z,26.00
2019-03-22T23:45:12.108Z,26.00
2019-03-22T23:47:45.529Z,26.00
2019-03-22T23:50:23.927Z,26.00
2019-03-22T23:52:57.843Z,26.10
2019-03-22T23:55:31.878Z,26.10
2019-03-22T23:58:05.886Z,26.10
